createdAt,value
2023-01-15T00:00:02.833Z,27.25
2023-01-15T00:02:33.298Z,27.22
2023-01-15T00:05:03.294Z,27.20
2023-01-15T00:07:31.780Z,27.18
2023-01-15T00:09:59.810Z,27.15
2023-01-15T00:12:29.228Z,27.14
2023-01-15T00:14:58.340Z,27.13
2023-01-15T00:17:26.975Z,27.09
2023-01-15T00:19:54.991Z,27.05
2023-01-15T00:22:22.939Z,27.01
2023-01-15T00:25:08.302Z,26.98
2023-01-15T00:27:40.862Z,26.92
2023-01-15T00:30:12.972Z,26.82
2023-01-15T00:32:41.220Z,26.78
2023-01-15T00:35:13.924Z,26.77
2023-01-15T00:37:43.063Z,26.75
2023-01-15T00:40:13.123Z,26.79
2023-01-15T00:42:43.080Z,26.82
2023-01-15T00:45:15.394Z,26.75
2023-01-15T00:47:45.486Z,26.67
2023-01-15T00:50:15.884Z,26.60
2023-01-15T00:52:44.131Z,26.50
2023-01-15T00:55:12.185Z,26.43
2023-01-15T00:57:40.378Z,26.46
2023-01-15T01:00:12.334Z,26.46
2023-01-15T01:02:40.436Z,26.46
2023-01-15T01:05:09.955Z,26.47
2023-01-15T01:07:38.074Z,26.46
2023-01-15T01:10:06.784Z,26.45
2023-01-15T01:12:37.502Z,26.40
2023-01-15T01:15:06.299Z,26.42
2023-01-15T01:17:35.615Z,26.42
2023-01-15T01:20:04.910Z,26.44
2023-01-15T01:22:33.712Z,26.41
2023-01-15T01:25:03.185Z,26.42
2023-01-15T01:27:31.307Z,26.39
2023-01-15T01:30:00.048Z,26.38
2023-01-15T01:32:28.343Z,26.35
2023-01-15T01:34:59.289Z,26.33
2023-01-15T01:37:27.397Z,26.30
2023-01-15T01:39:55.558Z,26.29
2023-01-15T01:42:24.490Z,26.26
2023-01-15T01:45:09.824Z,26.25
2023-01-15T01:47:37.936Z,26.21
2023-01-15T01:50:10.583Z,26.24
2023-01-15T01:52:44.834Z,26.21
2023-01-15T01:55:16.790Z,26.21
2023-01-15T01:57:46.021Z,26.19
2023-01-15T02:00:15.489Z,26.15
2023-01-15T02:02:46.442Z,26.13
2023-01-15T02:05:22.808Z,26.09
2023-01-15T02:07:50.865Z,26.03
2023-01-15T02:10:19.349Z,26.02
2023-01-15T02:12:54.095Z,26.01
2023-01-15T02:15:29.628Z,25.99
2023-01-15T02:18:04.105Z,25.97
2023-01-15T02:20:38.773Z,25.95
2023-01-15T02:23:23.605Z,25.94
2023-01-15T02:26:15.145Z,25.88
2023-01-15T02:28:48.318Z,25.84
2023-01-15T02:31:22.515Z,25.80
2023-01-15T02:33:57.995Z,25.76
2023-01-15T02:36:29.869Z,25.67
2023-01-15T02:39:04.212Z,25.75
2023-01-15T02:41:37.603Z,25.59
2023-01-15T02:44:10.271Z,25.52
2023-01-15T02:46:41.235Z,25.67
2023-01-15T02:49:14.637Z,25.64
2023-01-15T02:51:50.097Z,25.61
2023-01-15T02:54:21.469Z,25.61
2023-01-15T02:56:50.954Z,25.62
2023-01-15T02:59:25.753Z,25.60
2023-01-15T03:02:00.153Z,25.56
2023-01-15T03:04:34.767Z,25.55
2023-01-15T03:07:08.243Z,25.54
2023-01-15T03:09:38.931Z,25.55
2023-01-15T03:12:15.285Z,25.54
2023-01-15T03:14:56.189Z,25.52
2023-01-15T03:17:29.923Z,25.54
2023-01-15T03:20:05.556Z,25.53
2023-01-15T03:22:39.540Z,25.53
2023-01-15T03:25:11.430Z,25.50
2023-01-15T03:27:44.607Z,25.47
2023-01-15T03:30:19.795Z,25.48
2023-01-15T03:32:49.193Z,25.48
2023-01-15T03:35:45.039Z,25.50
2023-01-15T03:38:18.958Z,25.48
2023-01-15T03:40:59.515Z,25.47
2023-01-15T03:43:43.571Z,25.46
2023-01-15T03:46:30.155Z,25.47
2023-01-15T03:49:06.254Z,25.49
2023-01-15T03:51:39.747Z,25.48
2023-01-15T03:54:13.015Z,25.47
2023-01-15T03:56:55.522Z,25.46
2023-01-15T03:59:30.862Z,25.39
2023-01-15T04:02:07.172Z,25.40
2023-01-15T04:04:35.745Z,25.41
2023-01-15T04:07:05.445Z,25.43
2023-01-15T04:09:39.188Z,25.43
2023-01-15T04:12:09.397Z,25.37
2023-01-15T04:14:41.723Z,25.35
2023-01-15T04:17:16.899Z,25.33
2023-01-15T04:19:45.241Z,25.30
2023-01-15T04:22:14.394Z,25.31
2023-01-15T04:24:43.143Z,25.31
2023-01-15T04:27:11.090Z,25.29
2023-01-15T04:29:39.229Z,25.29
2023-01-15T04:32:07.303Z,25.31
2023-01-15T04:34:36.679Z,25.34
2023-01-15T04:37:04.605Z,25.36
2023-01-15T04:39:32.944Z,25.29
2023-01-15T04:42:18.416Z,25.34
2023-01-15T04:44:46.364Z,25.31
2023-01-15T04:47:14.572Z,25.21
2023-01-15T04:49:43.880Z,25.28
2023-01-15T04:52:11.856Z,25.25
2023-01-15T04:54:39.924Z,25.22
2023-01-15T04:57:08.033Z,25.21
2023-01-15T04:59:35.968Z,25.22
2023-01-15T05:02:06.686Z,25.20
2023-01-15T05:04:36.095Z,25.24
2023-01-15T05:07:06.509Z,25.25
2023-01-15T05:09:34.631Z,25.22
2023-01-15T05:12:02.808Z,25.22
2023-01-15T05:14:31.090Z,25.23
2023-01-15T05:16:59.028Z,25.22
2023-01-15T05:19:27.059Z,25.20
2023-01-15T05:21:55.031Z,25.16
2023-01-15T05:24:24.571Z,25.15
2023-01-15T05:26:52.576Z,25.12
2023-01-15T05:29:20.522Z,25.11
2023-01-15T05:31:48.441Z,25.11
2023-01-15T05:34:16.604Z,25.09
2023-01-15T05:36:44.649Z,25.08
2023-01-15T05:39:12.683Z,25.05
2023-01-15T05:41:50.767Z,25.04
2023-01-15T05:44:21.436Z,25.02
2023-01-15T05:46:51.014Z,25.02
2023-01-15T05:49:20.757Z,25.01
2023-01-15T05:51:49.501Z,24.97
2023-01-15T05:54:20.065Z,25.03
2023-01-15T05:56:49.731Z,25.03
2023-01-15T05:59:18.874Z,25.02
2023-01-15T06:01:47.109Z,25.01
2023-01-15T06:04:15.524Z,25.01
2023-01-15T06:06:44.215Z,25.04
2023-01-15T06:09:12.497Z,25.03
2023-01-15T06:11:41.139Z,25.04
2023-01-15T06:14:11.877Z,25.03
2023-01-15T06:16:41.290Z,25.01
2023-01-15T06:19:11.219Z,25.02
2023-01-15T06:21:39.282Z,25.02
2023-01-15T06:24:08.440Z,24.97
2023-01-15T06:26:36.491Z,25.03
2023-01-15T06:29:04.420Z,25.02
2023-01-15T06:31:33.829Z,25.05
2023-01-15T06:34:01.815Z,25.04
2023-01-15T06:36:29.954Z,25.04
2023-01-15T06:38:58.039Z,25.05
2023-01-15T06:41:44.990Z,25.06
2023-01-15T06:44:31.682Z,25.01
2023-01-15T06:47:22.879Z,25.03
2023-01-15T06:49:52.848Z,25.00
2023-01-15T06:52:20.782Z,25.00
2023-01-15T06:54:48.753Z,25.00
2023-01-15T06:57:16.693Z,25.00
2023-01-15T06:59:44.719Z,25.02
2023-01-15T07:02:14.129Z,25.05
2023-01-15T07:04:42.059Z,25.06
2023-01-15T07:07:09.970Z,25.06
2023-01-15T07:09:38.487Z,24.94
2023-01-15T07:12:06.903Z,25.06
2023-01-15T07:14:34.846Z,25.05
2023-01-15T07:17:02.753Z,25.05
2023-01-15T07:19:32.085Z,25.05
2023-01-15T07:22:00.052Z,25.05
2023-01-15T07:24:28.324Z,25.07
2023-01-15T07:26:56.353Z,25.05
2023-01-15T07:29:24.527Z,25.01
2023-01-15T07:31:52.869Z,25.01
2023-01-15T07:34:21.618Z,25.05
2023-01-15T07:36:50.873Z,25.10
2023-01-15T07:39:18.889Z,25.13
2023-01-15T07:42:04.303Z,25.14
2023-01-15T07:44:52.942Z,25.08
2023-01-15T07:47:40.290Z,25.05
2023-01-15T07:50:11.304Z,25.03
2023-01-15T07:52:40.739Z,25.01
2023-01-15T07:55:10.229Z,25.03
2023-01-15T07:57:38.712Z,25.03
2023-01-15T08:00:08.998Z,25.02
2023-01-15T08:02:44.337Z,25.00
2023-01-15T08:05:12.981Z,24.98
2023-01-15T08:07:43.909Z,24.94
2023-01-15T08:10:13.757Z,24.91
2023-01-15T08:12:59.122Z,24.89
2023-01-15T08:15:27.746Z,24.84
2023-01-15T08:17:55.677Z,24.84
2023-01-15T08:20:25.670Z,24.83
2023-01-15T08:22:55.099Z,24.83
2023-01-15T08:25:25.132Z,24.81
2023-01-15T08:27:54.334Z,24.80
2023-01-15T08:30:25.313Z,24.79
2023-01-15T08:32:53.705Z,24.75
2023-01-15T08:35:21.663Z,24.76
2023-01-15T08:37:50.932Z,24.75
2023-01-15T08:40:20.538Z,24.74
2023-01-15T08:42:48.473Z,24.72
2023-01-15T08:45:16.567Z,24.71
2023-01-15T08:47:44.618Z,24.69
2023-01-15T08:50:12.873Z,24.69
2023-01-15T08:52:41.167Z,24.70
2023-01-15T08:55:09.718Z,24.72
2023-01-15T08:57:39.091Z,24.73
2023-01-15T09:00:09.140Z,24.73
2023-01-15T09:02:37.090Z,24.73
2023-01-15T09:05:05.710Z,24.71
2023-01-15T09:07:35.388Z,24.70
2023-01-15T09:10:04.371Z,24.65
2023-01-15T09:12:32.732Z,24.64
2023-01-15T09:15:03.412Z,24.68
2023-01-15T09:17:33.664Z,24.67
2023-01-15T09:20:03.132Z,24.68
2023-01-15T09:22:31.404Z,24.68
2023-01-15T09:24:59.698Z,24.67
2023-01-15T09:27:28.194Z,24.68
2023-01-15T09:29:56.854Z,24.71
2023-01-15T09:32:26.488Z,24.73
2023-01-15T09:34:54.490Z,24.73
2023-01-15T09:37:22.632Z,24.73
2023-01-15T09:39:50.673Z,24.74
2023-01-15T09:42:41.529Z,24.75
2023-01-15T09:45:24.346Z,24.75
2023-01-15T09:48:15.017Z,24.75
2023-01-15T09:50:55.173Z,24.76
2023-01-15T09:53:46.789Z,24.77
2023-01-15T09:56:22.250Z,24.75
2023-01-15T09:58:51.747Z,24.77
2023-01-15T10:01:22.089Z,24.79
2023-01-15T10:03:58.572Z,24.79
2023-01-15T10:06:31.710Z,24.80
2023-01-15T10:09:07.504Z,24.81
2023-01-15T10:12:01.474Z,24.79
2023-01-15T10:14:40.779Z,24.78
2023-01-15T10:17:23.762Z,24.76
2023-01-15T10:19:53.650Z,24.76
2023-01-15T10:22:46.118Z,24.79
2023-01-15T10:25:17.652Z,24.79
2023-01-15T10:27:51.864Z,24.80
2023-01-15T10:30:30.904Z,24.84
2023-01-15T10:33:03.765Z,24.85
2023-01-15T10:35:50.884Z,24.88
2023-01-15T10:38:28.330Z,24.87
2023-01-15T10:41:32.767Z,24.88
2023-01-15T10:44:07.813Z,24.86
2023-01-15T10:46:40.566Z,24.85
2023-01-15T10:49:15.333Z,24.87
2023-01-15T10:51:47.587Z,24.85
2023-01-15T10:54:23.879Z,24.84
2023-01-15T10:57:01.932Z,24.83
2023-01-15T10:59:39.266Z,24.82
2023-01-15T11:02:24.699Z,24.82
2023-01-15T11:04:54.317Z,24.72
2023-01-15T11:07:39.107Z,24.81
2023-01-15T11:10:12.438Z,24.81
2023-01-15T11:12:59.247Z,24.80
2023-01-15T11:15:45.444Z,24.77
2023-01-15T11:18:34.717Z,24.77
2023-01-15T11:21:03.981Z,24.76
2023-01-15T11:23:36.562Z,24.77
2023-01-15T11:26:05.376Z,24.74
2023-01-15T11:28:40.009Z,24.77
2023-01-15T11:31:08.990Z,24.76
2023-01-15T11:33:37.822Z,24.77
2023-01-15T11:36:08.532Z,24.80
2023-01-15T11:38:46.956Z,24.81
2023-01-15T11:41:22.985Z,24.83
2023-01-15T11:44:15.101Z,24.75
2023-01-15T11:47:00.964Z,24.67
2023-01-15T11:49:46.253Z,24.64
2023-01-15T11:52:18.169Z,24.63
2023-01-15T11:54:51.543Z,24.65
2023-01-15T11:57:28.991Z,24.73
2023-01-15T11:59:57.993Z,24.77
2023-01-15T12:02:34.092Z,24.79
2023-01-15T12:05:04.374Z,24.86
2023-01-15T12:07:32.874Z,24.90
2023-01-15T12:10:17.811Z,24.95
2023-01-15T12:13:01.775Z,24.96
2023-01-15T12:15:51.531Z,24.97
2023-01-15T12:18:50.513Z,24.99
2023-01-15T12:21:35.218Z,24.99
2023-01-15T12:24:18.349Z,24.99
2023-01-15T12:27:01.732Z,24.99
2023-01-15T12:29:40.460Z,25.00
2023-01-15T12:32:15.089Z,25.02
2023-01-15T12:34:50.334Z,25.04
2023-01-15T12:37:24.253Z,25.06
2023-01-15T12:40:00.320Z,25.08
2023-01-15T12:42:50.495Z,25.11
2023-01-15T12:45:23.628Z,25.15
2023-01-15T12:48:00.280Z,25.20
2023-01-15T12:50:44.680Z,25.25
2023-01-15T12:53:17.993Z,25.30
2023-01-15T12:55:51.663Z,25.31
2023-01-15T12:58:34.812Z,25.36
2023-01-15T13:01:10.351Z,25.40
2023-01-15T13:03:50.977Z,25.45
2023-01-15T13:06:20.277Z,25.48
2023-01-15T13:08:56.706Z,25.50
2023-01-15T13:11:24.864Z,25.49
2023-01-15T13:14:00.471Z,25.53
2023-01-15T13:16:37.758Z,25.53
2023-01-15T13:19:23.590Z,25.52
2023-01-15T13:21:56.558Z,25.49
2023-01-15T13:24:46.758Z,25.48
2023-01-15T13:27:26.193Z,25.46
2023-01-15T13:30:15.501Z,25.45
2023-01-15T13:32:46.051Z,25.42
2023-01-15T13:35:21.410Z,25.43
2023-01-15T13:37:53.813Z,25.38
2023-01-15T13:40:26.685Z,25.41
2023-01-15T13:42:55.729Z,25.37
2023-01-15T13:45:38.077Z,25.35
2023-01-15T13:48:10.056Z,25.34
2023-01-15T13:50:42.546Z,25.14
2023-01-15T13:53:18.650Z,25.31
2023-01-15T13:55:53.355Z,25.29
2023-01-15T13:58:24.887Z,25.26
2023-01-15T14:01:09.226Z,25.26
2023-01-15T14:03:38.922Z,25.22
2023-01-15T14:06:09.069Z,25.21
2023-01-15T14:08:42.135Z,25.22
2023-01-15T14:11:46.659Z,25.22
2023-01-15T14:14:50.579Z,25.17
2023-01-15T14:17:53.649Z,25.12
2023-01-15T14:20:37.966Z,25.10
2023-01-15T14:23:24.925Z,25.09
2023-01-15T14:26:04.852Z,25.05
2023-01-15T14:28:48.010Z,25.04
2023-01-15T14:31:29.407Z,25.02
2023-01-15T14:34:16.415Z,25.00
2023-01-15T14:36:52.236Z,24.99
2023-01-15T14:39:35.006Z,24.99
2023-01-15T14:42:26.186Z,25.00
2023-01-15T14:45:01.128Z,24.98
2023-01-15T14:47:35.448Z,24.95
2023-01-15T14:50:27.793Z,24.95
2023-01-15T14:53:00.347Z,24.90
2023-01-15T14:55:28.982Z,24.85
2023-01-15T14:58:01.225Z,24.84
2023-01-15T15:00:35.918Z,24.84
2023-01-15T15:03:12.814Z,24.81
2023-01-15T15:05:44.400Z,24.80
2023-01-15T15:08:14.558Z,24.80
2023-01-15T15:10:45.098Z,24.81
2023-01-15T15:13:17.815Z,24.81
2023-01-15T15:15:53.239Z,24.81
2023-01-15T15:18:33.141Z,24.84
2023-01-15T15:21:07.017Z,24.96
2023-01-15T15:23:42.374Z,25.09
2023-01-15T15:26:21.943Z,25.19
2023-01-15T15:29:01.517Z,25.23
2023-01-15T15:31:32.574Z,25.24
2023-01-15T15:34:01.112Z,25.33
2023-01-15T15:36:32.648Z,25.41
2023-01-15T15:39:04.519Z,25.47
2023-01-15T15:41:54.521Z,25.51
2023-01-15T15:44:52.401Z,25.55
2023-01-15T15:47:38.830Z,25.58
2023-01-15T15:50:07.564Z,25.69
2023-01-15T15:52:36.874Z,25.80
2023-01-15T15:55:06.214Z,25.88
2023-01-15T15:57:36.261Z,25.98
2023-01-15T16:00:05.116Z,26.04
2023-01-15T16:02:36.565Z,26.10
2023-01-15T16:05:21.182Z,26.16
2023-01-15T16:07:51.177Z,26.15
2023-01-15T16:10:24.341Z,26.24
2023-01-15T16:12:55.896Z,26.30
2023-01-15T16:15:28.591Z,26.33
2023-01-15T16:17:57.709Z,26.35
2023-01-15T16:20:27.083Z,26.38
2023-01-15T16:22:58.847Z,26.44
2023-01-15T16:25:28.623Z,26.46
2023-01-15T16:27:56.618Z,26.47
2023-01-15T16:30:25.457Z,26.48
2023-01-15T16:32:55.891Z,26.52
2023-01-15T16:35:26.003Z,26.50
2023-01-15T16:37:58.484Z,26.52
2023-01-15T16:40:31.101Z,26.53
2023-01-15T16:43:07.035Z,26.52
2023-01-15T16:45:37.862Z,26.58
2023-01-15T16:48:27.370Z,26.60
2023-01-15T16:50:55.366Z,26.60
2023-01-15T16:53:40.977Z,26.62
2023-01-15T16:56:27.248Z,26.53
2023-01-15T16:58:55.181Z,26.47
2023-01-15T17:01:35.752Z,26.43
2023-01-15T17:04:04.643Z,26.59
2023-01-15T17:06:33.620Z,26.64
2023-01-15T17:09:03.112Z,26.70
2023-01-15T17:11:33.569Z,26.73
2023-01-15T17:14:12.587Z,26.77
2023-01-15T17:16:40.694Z,26.76
2023-01-15T17:19:08.988Z,26.77
2023-01-15T17:21:39.107Z,26.80
2023-01-15T17:24:09.992Z,26.82
2023-01-15T17:26:38.054Z,26.83
2023-01-15T17:29:05.953Z,26.87
2023-01-15T17:31:36.393Z,26.91
2023-01-15T17:34:05.082Z,26.94
2023-01-15T17:36:34.515Z,26.97
2023-01-15T17:39:02.503Z,27.02
2023-01-15T17:41:32.072Z,27.02
2023-01-15T17:44:00.044Z,27.04
2023-01-15T17:46:28.839Z,27.06
2023-01-15T17:48:56.883Z,27.07
2023-01-15T17:51:26.297Z,27.09
2023-01-15T17:53:54.190Z,27.11
2023-01-15T17:56:39.661Z,27.11
2023-01-15T17:59:26.477Z,27.09
2023-01-15T18:02:12.319Z,27.08
2023-01-15T18:05:16.201Z,27.09
2023-01-15T18:07:46.329Z,27.07
2023-01-15T18:10:18.792Z,26.93
2023-01-15T18:12:46.946Z,27.09
2023-01-15T18:15:17.147Z,27.11
2023-01-15T18:17:45.427Z,27.13
2023-01-15T18:20:13.801Z,27.16
2023-01-15T18:22:41.927Z,27.20
2023-01-15T18:25:12.059Z,27.22
2023-01-15T18:27:43.362Z,27.22
2023-01-15T18:30:13.232Z,27.22
2023-01-15T18:32:44.397Z,27.12
2023-01-15T18:35:13.720Z,27.21
2023-01-15T18:37:41.751Z,27.23
2023-01-15T18:40:11.422Z,27.23
2023-01-15T18:42:57.241Z,27.28
2023-01-15T18:45:42.629Z,27.29
2023-01-15T18:48:12.106Z,27.32
2023-01-15T18:50:40.097Z,27.35
2023-01-15T18:53:08.678Z,27.36
2023-01-15T18:55:36.649Z,27.38
2023-01-15T18:58:04.835Z,27.39
2023-01-15T19:00:33.057Z,27.41
2023-01-15T19:03:01.155Z,27.40
2023-01-15T19:05:30.538Z,27.34
2023-01-15T19:07:58.599Z,27.40
2023-01-15T19:10:26.734Z,27.32
2023-01-15T19:12:54.785Z,27.17
2023-01-15T19:15:40.289Z,27.12
2023-01-15T19:18:29.813Z,27.03
2023-01-15T19:20:59.234Z,26.97
2023-01-15T19:23:27.376Z,26.89
2023-01-15T19:25:55.392Z,26.84
2023-01-15T19:28:23.446Z,26.80
2023-01-15T19:31:05.625Z,26.76
2023-01-15T19:33:34.221Z,26.87
2023-01-15T19:36:03.827Z,26.84
2023-01-15T19:38:33.277Z,26.77
2023-01-15T19:41:22.129Z,26.70
2023-01-15T19:44:07.318Z,26.62
2023-01-15T19:46:52.741Z,26.54
2023-01-15T19:49:41.592Z,26.49
2023-01-15T19:52:28.427Z,26.52
2023-01-15T19:54:56.544Z,26.54
2023-01-15T19:57:24.890Z,26.58
2023-01-15T19:59:53.179Z,26.62
2023-01-15T20:02:21.198Z,26.63
2023-01-15T20:04:50.103Z,26.58
2023-01-15T20:07:19.682Z,26.54
2023-01-15T20:09:47.770Z,26.48
2023-01-15T20:12:47.775Z,26.45
2023-01-15T20:15:15.736Z,26.40
2023-01-15T20:17:43.728Z,26.36
2023-01-15T20:20:12.892Z,26.33
2023-01-15T20:22:42.349Z,26.31
2023-01-15T20:25:11.230Z,26.13
2023-01-15T20:27:40.631Z,26.23
2023-01-15T20:30:11.853Z,26.20
2023-01-15T20:32:43.830Z,26.19
2023-01-15T20:35:14.050Z,26.19
2023-01-15T20:37:43.517Z,26.17
2023-01-15T20:40:12.767Z,26.24
2023-01-15T20:42:58.777Z,26.39
2023-01-15T20:45:27.221Z,26.53
2023-01-15T20:48:12.673Z,26.68
2023-01-15T20:50:42.423Z,26.80
2023-01-15T20:53:12.167Z,26.91
2023-01-15T20:55:55.519Z,26.99
2023-01-15T20:58:25.378Z,27.05
2023-01-15T21:00:54.037Z,27.11
2023-01-15T21:03:22.043Z,27.16
2023-01-15T21:05:49.932Z,27.23
2023-01-15T21:08:20.989Z,27.26
2023-01-15T21:10:53.080Z,27.31
2023-01-15T21:13:22.896Z,27.24
2023-01-15T21:15:58.167Z,27.36
2023-01-15T21:18:26.853Z,27.37
2023-01-15T21:20:55.121Z,27.40
2023-01-15T21:26:00.184Z,27.28
2023-01-15T21:28:28.365Z,27.25
2023-01-15T21:30:56.787Z,27.30
2023-01-15T21:33:24.862Z,27.34
2023-01-15T21:35:52.949Z,27.36
2023-01-15T21:38:20.936Z,27.26
2023-01-15T21:40:50.354Z,27.15
2023-01-15T21:43:35.635Z,27.06
2023-01-15T21:46:04.568Z,26.98
2023-01-15T21:48:32.872Z,26.93
2023-01-15T21:51:05.218Z,26.86
2023-01-15T21:53:33.541Z,26.71
2023-01-15T21:56:02.840Z,26.76
2023-01-15T21:58:30.874Z,26.70
2023-01-15T22:00:59.625Z,26.66
2023-01-15T22:03:27.693Z,26.63
2023-01-15T22:05:55.705Z,26.64
2023-01-15T22:08:23.707Z,26.60
2023-01-15T22:10:53.179Z,26.58
2023-01-15T22:13:22.426Z,26.59
2023-01-15T22:15:54.728Z,26.61
2023-01-15T22:18:25.882Z,26.62
2023-01-15T22:20:58.095Z,26.62
2023-01-15T22:23:26.219Z,26.63
2023-01-15T22:25:54.794Z,26.64
2023-01-15T22:28:24.537Z,26.67
2023-01-15T22:30:52.673Z,26.51
2023-01-15T22:33:20.636Z,26.69
2023-01-15T22:35:58.364Z,26.72
2023-01-15T22:38:26.678Z,26.73
2023-01-15T22:40:54.859Z,26.78
2023-01-15T22:43:24.217Z,26.82
2023-01-15T22:45:52.297Z,26.73
2023-01-15T22:48:20.293Z,26.87
2023-01-15T22:50:48.258Z,26.89
2023-01-15T22:53:16.490Z,26.90
2023-01-15T22:55:44.425Z,26.90
2023-01-15T22:58:12.469Z,26.84
2023-01-15T23:00:41.901Z,26.94
2023-01-15T23:03:09.789Z,26.93
2023-01-15T23:05:39.041Z,26.96
2023-01-15T23:08:07.512Z,26.98
2023-01-15T23:10:35.634Z,26.97
2023-01-15T23:13:03.742Z,26.98
2023-01-15T23:15:31.641Z,26.96
2023-01-15T23:18:01.012Z,26.97
2023-01-15T23:20:29.000Z,26.94
2023-01-15T23:22:57.010Z,26.94
2023-01-15T23:25:25.072Z,26.95
2023-01-15T23:27:53.248Z,26.95
2023-01-15T23:30:21.251Z,26.96
2023-01-15T23:32:49.295Z,26.96
2023-01-15T23:35:19.546Z,26.97
2023-01-15T23:37:47.636Z,26.94
2023-01-15T23:40:15.867Z,26.96
2023-01-15T23:43:01.324Z,27.00
2023-01-15T23:45:46.621Z,27.10
2023-01-15T23:48:14.724Z,27.15
2023-01-15T23:50:44.041Z,27.16
2023-01-15T23:53:12.121Z,27.13
2023-01-15T23:55:40.184Z,27.06
2023-01-15T23:58:08.137Z,27.06
